CST,Max TemperatureF,Mean TemperatureF,Min TemperatureF,Max Dew PointF,MeanDew PointF,Min DewpointF,Max Humidity, Mean Humidity, Min Humidity, Max Sea Level PressureIn, Mean Sea Level PressureIn, Min Sea Level PressureIn, Max VisibilityMiles, Mean VisibilityMiles, Min VisibilityMiles, Max Wind SpeedMPH, Mean Wind SpeedMPH, Max Gust SpeedMPH,PrecipitationIn, CloudCover, Events, WindDirDegrees
2013-2-1,28,14,-1,18,8,-5,87,75,63,30.51,30.27,30.13,10,10,10,23,9,29,0.00,6,,189
2013-2-2,46,32,17,35,25,15,92,73,53,30.25,30.18,30.09,10,10,8,23,5,29,T,5,Snow,289
2013-2-3,44,32,19,29,25,16,92,70,48,30.28,30.09,29.83,10,10,10,20,8,24,0.00,0,,221
2013-2-4,37,31,24,27,22,20,92,84,75,30.08,29.97,29.82,10,9,7,26,9,31,0.00,6,,13
2013-2-5,53,39,24,30,26,23,92,64,35,30.10,30.01,29.91,10,9,7,21,7,25,0.00,2,,308
2013-2-6,58,43,27,40,33,23,86,69,51,30.07,29.94,29.84,10,9,7,23,8,30,0.00,2,,186
2013-2-7,42,36,29,36,29,24,92,81,70,30.30,30.10,29.91,10,7,5,23,14,28,0.00,6,,354
2013-2-8,39,33,26,28,25,21,85,75,64,30.38,30.28,30.17,9,6,4,15,8,21,0.00,5,,125
2013-2-9,54,42,29,38,32,26,92,73,54,30.16,29.91,29.65,10,7,4,25,17,32,T,4,Rain,159
2013-2-10,45,39,32,43,32,21,100,78,56,29.90,29.49,29.28,10,8,2,36,20,49,0.05,8,Rain,211
2013-2-11,41,32,22,23,20,19,81,63,44,30.21,30.11,29.92,10,10,9,36,12,44,0.00,3,,307
2013-2-12,49,33,17,22,18,15,92,60,28,30.13,30.02,29.96,10,9,7,18,7,23,0.00,0,,236
2013-2-13,55,38,21,28,24,19,88,59,29,29.96,29.86,29.78,10,10,10,20,6,23,0.00,1,,260
2013-2-14,46,34,21,31,24,13,82,58,33,30.35,30.11,29.86,10,8,1,36,15,43,T,5,Snow,322
2013-2-15,35,25,14,25,19,10,84,64,43,30.43,30.35,30.28,10,7,0,23,9,28,0.02,6,Snow,321
2013-2-16,40,26,11,23,17,9,92,70,48,30.39,30.19,30.04,10,10,9,18,7,24,0.00,5,,187
2013-2-17,62,41,20,31,26,18,92,61,29,30.04,29.80,29.56,10,10,9,23,9,28,0.00,0,,166
2013-2-18,43,33,23,32,24,14,85,65,45,30.14,29.84,29.56,10,9,1,31,15,38,0.02,4,Rain-Snow,335
2013-2-19,30,20,9,16,3,-4,77,51,24,30.45,30.34,30.16,10,10,10,26,14,32,0.00,0,,344
2013-2-20,25,16,6,10,4,0,80,63,46,30.45,30.35,30.20,10,10,7,16,10,20,T,5,Snow,82
2013-2-21,24,22,20,19,16,6,92,75,57,30.27,29.95,29.84,10,3,0,23,14,29,0.39,8,Fog-Snow,46
2013-2-22,22,14,5,18,13,4,91,80,68,30.11,29.99,29.85,10,5,1,16,9,21,0.04,5,Snow,319
2013-2-23,36,18,0,25,13,-3,91,77,63,30.09,29.97,29.88,8,6,4,14,6,16,0.00,0,,188
2013-2-24,43,31,19,29,24,16,88,77,53,30.10,30.01,29.92,8,5,3,15,4,,0.00,6,,35
2013-2-25,35,31,27,27,25,22,92,81,69,30.12,30.04,29.91,5,4,3,20,12,24,0.00,7,,18
2013-2-26,31,28,24,27,24,21,92,85,78,29.99,29.88,29.81,4,3,1,21,16,24,0.02,8,Snow,355
2013-2-27,42,34,25,26,23,19,92,71,49,30.15,30.05,29.93,10,7,3,32,18,39,0.00,5,,329
2013-2-28,33,30,26,24,22,19,81,72,63,30.30,30.24,30.14,10,10,8,25,16,31,0.00,8,,349